Time;durP1;ratioP1;P1;durP2;ratioP2;P2;SDS_P1;SDS_P2;PMS_P1;PMS_P2;Temp;Humidity;BMP_temperature;BMP_pressure;BME280_temperature;BME280_humidity;BME280_pressure;Samples;Min_cycle;Max_cycle;Signal;HPM_P1;HPM_P2
2022/07/24 00:01:47;;;;;;;8.60;7.80;;;;;;;19.73;65.45;100670.33;109131;1267;22024;-80
2022/07/24 00:04:19;;;;;;;11.40;10.20;;;;;;;19.72;65.46;100668.73;108928;1273;21999;-81
2022/07/24 00:06:51;;;;;;;9.70;8.20;;;;;;;19.71;65.49;100670.10;109044;1270;21985;-82
2022/07/24 00:09:20;;;;;;;9.50;8.50;;;;;;;19.70;65.60;100672.53;109083;1270;23693;-83
2022/07/24 00:11:49;;;;;;;9.70;8.70;;;;;;;19.68;65.40;100676.91;109036;1273;22000;-82
2022/07/24 00:14:18;;;;;;;9.40;8.50;;;;;;;19.65;65.51;100675.75;108889;1273;22098;-81
2022/07/24 00:16:47;;;;;;;12.10;9.00;;;;;;;19.61;65.59;100674.77;108927;1272;24232;-82
2022/07/24 00:19:16;;;;;;;9.30;8.50;;;;;;;19.57;65.65;100673.36;108967;1272;22387;-80
2022/07/24 00:21:45;;;;;;;10.50;8.60;;;;;;;19.52;65.65;100676.65;109026;1263;23052;-81
2022/07/24 00:24:14;;;;;;;9.30;8.40;;;;;;;19.47;65.81;100675.38;109465;1263;21973;-81
2022/07/24 00:26:43;;;;;;;9.40;7.80;;;;;;;19.43;65.87;100677.64;109448;1263;22060;-83
2022/07/24 00:29:12;;;;;;;10.40;8.20;;;;;;;19.38;65.90;100674.54;109433;1263;22000;-82
2022/07/24 00:31:41;;;;;;;9.80;8.90;;;;;;;19.33;66.13;100675.36;108949;1270;22001;-82
2022/07/24 00:34:11;;;;;;;10.70;9.50;;;;;;;19.29;66.29;100679.68;108734;1273;21982;-82
2022/07/24 00:36:43;;;;;;;11.20;9.10;;;;;;;19.24;66.39;100679.71;108384;1279;23710;-81
2022/07/24 00:39:12;;;;;;;11.20;9.30;;;;;;;19.22;66.56;100680.27;108480;1277;23074;-82
2022/07/24 00:41:41;;;;;;;9.70;8.70;;;;;;;19.19;66.63;100681.80;108511;1277;22147;-82
2022/07/24 00:44:14;;;;;;;10.90;9.80;;;;;;;19.16;66.65;100683.02;108264;1282;22014;-82
2022/07/24 00:46:46;;;;;;;10.20;9.30;;;;;;;19.14;66.68;100681.64;108257;1282;22027;-81
2022/07/24 00:49:18;;;;;;;10.40;8.70;;;;;;;19.11;66.64;100680.80;108258;1276;22037;-81
2022/07/24 00:51:52;;;;;;;10.70;9.80;;;;;;;19.08;66.61;100683.86;108680;1273;25015;-81
2022/07/24 00:54:22;;;;;;;11.50;10.30;;;;;;;19.04;66.64;100686.48;108814;1267;21988;-81
2022/07/24 00:56:54;;;;;;;10.40;8.70;;;;;;;19.01;66.65;100687.36;108745;1273;22755;-82
2022/07/24 00:59:24;;;;;;;11.20;9.80;;;;;;;18.97;66.69;100688.16;108731;1273;22004;-82
2022/07/24 01:01:53;;;;;;;10.50;9.40;;;;;;;18.95;66.81;100690.52;108918;1270;21982;-82
2022/07/24 01:04:23;;;;;;;10.70;9.70;;;;;;;18.91;66.88;100691.91;109122;1266;23598;-82
2022/07/24 01:06:53;;;;;;;11.10;9.90;;;;;;;18.87;66.87;100693.08;109123;1270;22105;-82
2022/07/24 01:09:22;;;;;;;11.80;9.40;;;;;;;18.82;67.02;100695.49;109156;1266;22117;-82
2022/07/24 01:11:54;;;;;;;10.60;9.60;;;;;;;18.79;67.08;100696.13;108696;1273;21987;-82
2022/07/24 01:14:23;;;;;;;12.90;10.20;;;;;;;18.74;67.23;100693.42;108627;1273;21991;-82
2022/07/24 01:16:53;;;;;;;10.40;9.40;;;;;;;18.69;67.33;100695.11;108711;1274;23162;-82
2022/07/24 01:19:22;;;;;;;11.70;10.30;;;;;;;18.65;67.24;100698.75;108480;1279;22014;-82
2022/07/24 01:21:53;;;;;;;11.80;10.00;;;;;;;18.62;67.38;100699.23;108455;1276;23027;-82
2022/07/24 01:24:23;;;;;;;11.20;10.00;;;;;;;18.58;67.74;100697.96;108498;1279;22246;-82
2022/07/24 01:26:52;;;;;;;11.90;10.70;;;;;;;18.55;67.69;100698.91;108169;1283;22051;-82
2022/07/24 01:29:22;;;;;;;11.90;10.60;;;;;;;18.51;67.77;100699.05;108207;1282;22027;-83
2022/07/24 01:31:51;;;;;;;11.70;10.50;;;;;;;18.47;67.76;100694.83;108143;1282;25049;-83
2022/07/24 01:34:20;;;;;;;10.80;10.00;;;;;;;18.43;67.91;100691.42;108097;1285;23028;-81
2022/07/24 01:36:49;;;;;;;11.10;10.20;;;;;;;18.40;68.02;100693.62;108006;1280;22015;-82
2022/07/24 01:39:19;;;;;;;10.80;9.90;;;;;;;18.36;67.99;100692.73;108258;1279;22077;-82
2022/07/24 01:41:48;;;;;;;11.80;10.40;;;;;;;18.32;68.07;100691.81;108347;1276;22464;-83
2022/07/24 01:44:17;;;;;;;10.80;9.80;;;;;;;18.29;68.30;100692.25;108634;1270;21997;-82
2022/07/24 01:46:46;;;;;;;12.30;11.20;;;;;;;18.26;68.44;100692.63;108999;1270;22733;-82
2022/07/24 01:49:16;;;;;;;12.30;11.20;;;;;;;18.24;68.39;100692.11;108931;1273;23052;-82
2022/07/24 01:51:45;;;;;;;16.00;10.20;;;;;;;18.20;68.33;100694.58;108902;1270;21995;-81
2022/07/24 01:54:14;;;;;;;11.50;10.40;;;;;;;18.16;68.36;100692.33;108726;1269;21989;-81
2022/07/24 01:56:44;;;;;;;11.20;10.20;;;;;;;18.11;68.50;100689.38;108939;1271;22459;-81
2022/07/24 01:59:13;;;;;;;11.80;10.70;;;;;;;18.06;68.55;100689.88;108950;1270;22964;-80
2022/07/24 02:01:43;;;;;;;12.90;11.70;;;;;;;18.01;68.41;100689.39;108616;1270;22855;-80
2022/07/24 02:04:14;;;;;;;10.80;9.80;;;;;;;17.96;68.46;100685.98;108994;1270;22356;-81
2022/07/24 02:06:43;;;;;;;13.20;11.20;;;;;;;17.92;68.89;100683.77;108825;1270;21994;-81
2022/07/24 02:09:12;;;;;;;12.30;11.00;;;;;;;17.90;68.99;100683.40;108586;1276;22003;-80
2022/07/24 02:11:42;;;;;;;11.80;10.60;;;;;;;17.87;69.02;100681.92;108650;1276;23089;-81
2022/07/24 02:14:11;;;;;;;11.80;10.60;;;;;;;17.85;69.08;100680.20;108634;1276;22008;-80
2022/07/24 02:16:41;;;;;;;12.20;11.10;;;;;;;17.83;69.02;100683.54;108657;1275;22419;-80
2022/07/24 02:19:11;;;;;;;10.90;10.00;;;;;;;17.81;69.04;100683.50;108246;1279;23686;-82
2022/07/24 02:21:40;;;;;;;13.40;12.10;;;;;;;17.79;69.21;100682.75;108256;1280;22215;-80
2022/07/24 02:24:09;;;;;;;12.50;11.20;;;;;;;17.76;69.28;100684.34;108227;1280;24527;-79
2022/07/24 02:26:38;;;;;;;13.00;11.60;;;;;;;17.73;69.37;100684.48;108423;1273;21985;-81
2022/07/24 02:29:07;;;;;;;15.00;13.40;;;;;;;17.71;69.38;100685.32;108636;1276;23795;-81
2022/07/24 02:31:37;;;;;;;13.50;11.90;;;;;;;17.70;69.48;100687.95;108592;1276;23716;-80
2022/07/24 02:34:06;;;;;;;14.40;12.90;;;;;;;17.68;69.55;100684.55;108597;1275;22316;-80
2022/07/24 02:36:35;;;;;;;14.70;12.60;;;;;;;17.65;69.51;100686.59;108697;1270;23030;-81
2022/07/24 02:39:05;;;;;;;13.90;12.60;;;;;;;17.63;69.49;100688.00;109107;1268;21976;-80
2022/07/24 02:41:35;;;;;;;13.30;12.00;;;;;;;17.60;69.57;100689.64;109093;1267;23783;-81
2022/07/24 02:44:04;;;;;;;13.00;12.00;;;;;;;17.59;69.72;100691.82;109068;1270;22040;-80
2022/07/24 02:46:33;;;;;;;13.60;12.30;;;;;;;17.56;69.45;100697.48;109207;1263;22022;-80
2022/07/24 02:49:02;;;;;;;14.10;12.60;;;;;;;17.54;69.65;100699.70;109409;1264;23748;-81
2022/07/24 02:51:34;;;;;;;13.50;12.30;;;;;;;17.55;69.73;100700.69;109488;1262;22054;-80
2022/07/24 02:54:03;;;;;;;15.30;13.70;;;;;;;17.54;69.73;100701.19;109477;1263;23660;-79
2022/07/24 02:56:33;;;;;;;14.80;13.40;;;;;;;17.53;69.67;100702.30;109746;1263;22022;-81
2022/07/24 02:59:02;;;;;;;14.00;12.50;;;;;;;17.54;69.78;100701.27;109483;1262;21991;-80
2022/07/24 03:01:32;;;;;;;13.50;12.20;;;;;;;17.54;69.56;100702.37;109441;1262;23593;-80
2022/07/24 03:04:05;;;;;;;13.90;12.70;;;;;;;17.55;69.67;100703.29;109783;1261;22080;-81
2022/07/24 03:06:35;;;;;;;13.60;11.60;;;;;;;17.58;69.67;100707.23;109634;1261;22099;-80
2022/07/24 03:09:04;;;;;;;13.80;12.60;;;;;;;17.59;69.48;100710.31;109719;1262;22071;-80
2022/07/24 03:11:34;;;;;;;13.70;12.50;;;;;;;17.59;69.35;100712.09;109371;1263;23729;-81
2022/07/24 03:14:06;;;;;;;13.90;12.60;;;;;;;17.58;69.24;100717.84;109127;1267;24982;-80
2022/07/24 03:16:48;;;;;;;13.60;11.90;;;;;;;17.56;69.14;100722.77;109135;1267;22023;-82
2022/07/24 03:19:18;;;;;;;14.60;13.10;;;;;;;17.54;69.06;100726.91;109054;1267;23087;-82
2022/07/24 03:21:48;;;;;;;14.60;13.20;;;;;;;17.56;69.28;100729.75;108974;1270;21982;-82
2022/07/24 03:24:17;;;;;;;13.90;12.70;;;;;;;17.60;69.21;100735.14;108954;1271;21984;-80
2022/07/24 03:26:46;;;;;;;17.00;12.80;;;;;;;17.58;69.04;100739.58;108755;1270;23077;-82
2022/07/24 03:29:15;;;;;;;14.00;12.60;;;;;;;17.55;68.63;100741.39;108538;1276;22009;-82
2022/07/24 03:31:45;;;;;;;17.30;13.70;;;;;;;17.52;68.67;100741.83;108526;1276;24157;-82
2022/07/24 03:34:14;;;;;;;14.90;13.10;;;;;;;17.49;68.68;100740.84;108200;1283;22604;-82
2022/07/24 03:36:43;;;;;;;14.60;12.10;;;;;;;17.47;68.92;100743.02;107670;1286;23087;-81
2022/07/24 03:39:13;;;;;;;14.30;12.90;;;;;;;17.48;68.97;100742.76;108008;1282;22153;-82
2022/07/24 03:41:43;;;;;;;15.70;13.10;;;;;;;17.47;68.81;100742.06;108236;1281;23697;-81
2022/07/24 03:44:13;;;;;;;13.70;12.10;;;;;;;17.45;69.13;100744.73;107850;1287;22059;-82
2022/07/24 03:46:42;;;;;;;20.00;13.40;;;;;;;17.47;69.11;100743.10;107323;1287;23864;-82
2022/07/24 03:49:11;;;;;;;16.40;13.00;;;;;;;17.47;69.07;100743.30;107376;1289;23130;-81
2022/07/24 03:51:41;;;;;;;13.00;11.70;;;;;;;17.46;69.08;100748.15;107648;1287;24198;-81
2022/07/24 03:54:10;;;;;;;12.80;11.60;;;;;;;17.47;69.20;100748.98;107627;1286;22039;-81
2022/07/24 03:56:40;;;;;;;12.90;11.60;;;;;;;17.45;68.99;100754.06;107729;1288;23683;-82
2022/07/24 03:59:09;;;;;;;14.30;12.70;;;;;;;17.43;69.22;100754.56;107604;1287;22094;-83
2022/07/24 04:01:39;;;;;;;15.00;13.50;;;;;;;17.42;69.03;100754.91;107699;1285;22016;-82
2022/07/24 04:04:08;;;;;;;14.30;12.90;;;;;;;17.40;69.09;100753.56;107939;1281;21999;-82
2022/07/24 04:06:38;;;;;;;15.30;13.70;;;;;;;17.41;69.58;100750.44;107980;1282;22013;-78
2022/07/24 04:09:08;;;;;;;13.80;12.60;;;;;;;17.46;69.76;100752.83;107922;1283;23739;-78
2022/07/24 04:11:37;;;;;;;13.30;12.00;;;;;;;17.52;69.80;100757.57;108190;1273;21985;-78
2022/07/24 04:14:06;;;;;;;13.70;12.30;;;;;;;17.57;69.81;100760.00;108866;1270;23750;-77
2022/07/24 04:16:36;;;;;;;12.80;11.50;;;;;;;17.61;69.71;100759.84;108799;1270;21982;-78
2022/07/24 04:19:05;;;;;;;13.50;11.20;;;;;;;17.66;69.52;100758.20;108677;1272;23648;-79
2022/07/24 04:21:35;;;;;;;13.90;12.50;;;;;;;17.71;69.49;100759.11;108853;1266;22633;-79
2022/07/24 04:24:05;;;;;;;12.00;10.80;;;;;;;17.74;69.47;100757.63;108981;1268;21982;-78
2022/07/24 04:26:34;;;;;;;12.30;11.20;;;;;;;17.79;69.50;100758.89;108834;1270;22790;-78
2022/07/24 04:29:03;;;;;;;12.40;11.40;;;;;;;17.86;69.57;100757.46;108707;1270;21992;-79
2022/07/24 04:31:33;;;;;;;11.60;10.50;;;;;;;17.93;69.33;100757.95;108735;1270;21989;-78
2022/07/24 04:34:02;;;;;;;12.80;11.30;;;;;;;18.00;69.11;100758.56;108378;1273;23143;-78
2022/07/24 04:36:32;;;;;;;13.40;12.00;;;;;;;18.06;69.15;100762.96;108476;1273;23088;-78
2022/07/24 04:39:01;;;;;;;14.20;12.60;;;;;;;18.12;68.99;100762.99;108413;1276;24411;-78
2022/07/24 04:41:36;;;;;;;12.80;10.60;;;;;;;18.19;68.85;100762.45;108508;1273;22793;-78
2022/07/24 04:44:05;;;;;;;12.30;10.80;;;;;;;18.29;68.79;100765.61;108629;1270;22628;-78
2022/07/24 04:46:34;;;;;;;11.20;10.20;;;;;;;18.38;68.82;100768.27;108764;1270;22012;-78
2022/07/24 04:49:03;;;;;;;15.30;11.70;;;;;;;18.47;68.48;100768.82;108452;1276;22006;-78
2022/07/24 04:51:32;;;;;;;16.90;11.00;;;;;;;18.55;68.32;100771.07;108402;1275;23710;-78
2022/07/24 04:54:01;;;;;;;10.60;9.50;;;;;;;18.64;68.05;100774.01;108292;1276;23024;-78
2022/07/24 04:56:32;;;;;;;10.70;9.60;;;;;;;18.73;68.14;100775.57;108205;1276;22951;-78
2022/07/24 04:59:01;;;;;;;11.00;9.90;;;;;;;18.84;67.85;100776.94;108466;1273;22071;-78
2022/07/24 05:01:31;;;;;;;10.30;8.00;;;;;;;18.95;67.69;100780.63;108499;1273;23740;-78
2022/07/24 05:04:02;;;;;;;11.10;8.20;;;;;;;19.06;67.39;100776.59;108400;1273;24299;-78
2022/07/24 05:06:32;;;;;;;;;;;;;;;19.19;67.16;100774.64;108381;1274;21990;-78
2022/07/24 05:09:01;;;;;;;8.80;7.90;;;;;;;19.24;67.02;100777.41;108494;1273;22056;-78
2022/07/24 05:11:31;;;;;;;9.20;8.20;;;;;;;19.34;66.63;100777.48;108498;1272;23635;-78
2022/07/24 05:14:00;;;;;;;11.60;8.20;;;;;;;19.44;66.08;100779.88;108734;1272;22452;-78
2022/07/24 05:16:29;;;;;;;10.20;7.90;;;;;;;19.53;65.90;100782.67;108666;1272;23827;-78
2022/07/24 05:18:59;;;;;;;8.60;7.80;;;;;;;19.65;65.76;100784.98;108669;1272;21999;-78
2022/07/24 05:21:28;;;;;;;8.20;7.30;;;;;;;19.76;65.37;100790.35;108759;1270;23806;-79
2022/07/24 05:24:01;;;;;;;8.70;7.60;;;;;;;19.88;65.06;100794.34;108712;1268;21978;-82
2022/07/24 05:26:33;;;;;;;14.00;8.80;;;;;;;20.03;65.07;100796.58;109084;1267;22017;-81
2022/07/24 05:29:06;;;;;;;12.20;8.90;;;;;;;20.19;64.48;100802.08;108940;1268;22043;-82
2022/07/24 05:31:36;;;;;;;9.50;7.60;;;;;;;20.33;64.15;100804.55;109159;1267;21986;-81
2022/07/24 05:34:09;;;;;;;8.50;7.50;;;;;;;20.49;63.97;100804.65;108997;1268;22010;-80
2022/07/24 05:37:02;;;;;;;8.60;7.10;;;;;;;20.63;63.50;100808.55;109010;1270;22053;-80
2022/07/24 05:39:36;;;;;;;7.10;6.40;;;;;;;20.78;63.10;100808.83;109046;1270;22005;-80
2022/07/24 05:42:23;;;;;;;6.60;5.40;;;;;;;20.96;62.61;100811.39;108661;1273;21997;-81
2022/07/24 05:44:58;;;;;;;7.20;5.30;;;;;;;21.17;61.92;100810.75;108723;1273;22011;-80
2022/07/24 05:47:46;;;;;;;6.60;5.80;;;;;;;21.44;61.29;100816.34;108695;1274;22229;-79
2022/07/24 05:50:16;;;;;;;5.90;5.00;;;;;;;21.69;60.61;100820.81;108780;1270;21998;-79
2022/07/24 05:52:48;;;;;;;7.90;5.40;;;;;;;21.97;60.28;100821.78;109146;1270;23605;-81
2022/07/24 05:55:21;;;;;;;5.70;4.30;;;;;;;22.30;59.63;100827.30;109109;1269;22173;-80
2022/07/24 05:58:06;;;;;;;6.80;4.30;;;;;;;22.66;58.65;100834.65;108872;1267;22101;-80
2022/07/24 06:00:46;;;;;;;6.30;3.90;;;;;;;22.97;56.81;100835.12;109464;1261;23583;-79
2022/07/24 06:03:26;;;;;;;5.00;3.90;;;;;;;23.26;56.11;100833.61;109540;1262;21982;-79
2022/07/24 06:06:05;;;;;;;4.30;3.70;;;;;;;23.63;54.77;100832.64;109127;1267;22928;-80
2022/07/24 06:08:41;;;;;;;6.70;4.20;;;;;;;23.94;53.48;100828.91;109183;1267;23061;-80
2022/07/24 06:11:17;;;;;;;6.30;4.10;;;;;;;24.20;52.44;100830.08;109149;1267;22040;-80
2022/07/24 06:13:54;;;;;;;4.00;3.20;;;;;;;24.54;52.40;100831.38;109224;1267;22278;-81
2022/07/24 06:16:38;;;;;;;8.30;3.50;;;;;;;24.90;50.16;100828.23;109136;1266;23198;-80
2022/07/24 06:19:16;;;;;;;6.20;4.20;;;;;;;25.11;49.68;100827.63;109139;1267;21993;-80
2022/07/24 06:21:58;;;;;;;4.60;3.20;;;;;;;25.31;49.01;100827.83;109086;1267;23111;-81
2022/07/24 06:24:48;;;;;;;6.60;3.00;;;;;;;25.53;48.00;100828.69;109469;1260;21985;-81
2022/07/24 06:27:46;;;;;;;4.00;2.50;;;;;;;25.71;47.28;100828.49;109537;1261;21995;-81
2022/07/24 06:31:15;;;;;;;4.20;2.40;;;;;;;26.01;46.73;100830.87;109828;1260;21978;-81
2022/07/24 06:34:24;;;;;;;2.50;1.90;;;;;;;26.27;45.23;100830.48;109588;1260;22312;-80
2022/07/24 06:36:57;;;;;;;4.90;1.90;;;;;;;26.44;44.09;100828.00;109479;1262;23598;-79
2022/07/24 06:39:35;;;;;;;4.70;2.20;;;;;;;26.64;44.14;100830.14;109250;1260;21972;-79
2022/07/24 06:42:33;;;;;;;3.70;2.80;;;;;;;27.01;43.50;100833.22;109034;1267;21991;-84
2022/07/24 06:45:34;;;;;;;3.80;2.10;;;;;;;27.29;42.19;100833.27;109076;1270;23733;-80
2022/07/24 06:48:22;;;;;;;3.50;2.50;;;;;;;27.52;41.26;100831.38;108717;1270;23648;-78
2022/07/24 06:51:02;;;;;;;3.50;3.10;;;;;;;27.61;40.06;100830.52;108715;1270;23145;-77
2022/07/24 06:53:40;;;;;;;6.20;3.30;;;;;;;27.64;39.88;100833.78;108344;1276;22117;-78
2022/07/24 06:56:39;;;;;;;4.00;2.00;;;;;;;27.87;39.43;100837.20;108425;1276;22540;-78
2022/07/24 06:59:23;;;;;;;2.60;1.50;;;;;;;28.05;38.41;100834.91;108326;1276;22016;-78
2022/07/24 07:02:28;;;;;;;4.10;1.40;;;;;;;28.19;37.32;100835.39;108566;1271;21983;-77
2022/07/24 07:05:29;;;;;;;2.30;1.00;;;;;;;28.30;36.71;100828.48;108892;1267;23606;-77
2022/07/24 07:08:05;;;;;;;1.80;1.20;;;;;;;28.42;35.80;100829.73;108849;1267;21969;-76
2022/07/24 07:10:52;;;;;;;3.50;1.00;;;;;;;28.48;34.54;100828.79;108767;1265;21973;-77
2022/07/24 07:13:33;;;;;;;5.10;3.50;;;;;;;28.42;34.38;100826.52;109282;1261;21965;-77
2022/07/24 07:16:08;;;;;;;3.40;2.60;;;;;;;28.45;34.35;100827.43;109274;1262;21989;-77
2022/07/24 07:18:47;;;;;;;2.20;0.90;;;;;;;28.54;33.83;100828.61;109569;1260;22004;-78
2022/07/24 07:21:39;;;;;;;3.10;1.20;;;;;;;28.58;33.49;100830.61;109590;1261;21993;-78
2022/07/24 07:24:19;;;;;;;1.90;1.30;;;;;;;28.59;33.19;100824.63;109321;1260;22821;-78
2022/07/24 07:27:04;;;;;;;1.90;1.00;;;;;;;28.67;33.21;100828.52;109516;1260;21973;-78
2022/07/24 07:30:00;;;;;;;3.30;0.90;;;;;;;28.71;32.65;100827.80;108626;1273;21986;-77
2022/07/24 07:32:47;;;;;;;4.10;1.60;;;;;;;28.63;32.30;100825.76;108644;1273;24073;-77
2022/07/24 07:35:49;;;;;;;2.80;1.20;;;;;;;28.59;32.65;100823.11;108397;1275;21985;-78
2022/07/24 07:38:33;;;;;;;2.80;1.40;;;;;;;28.73;32.49;100831.15;107960;1282;23685;-78
2022/07/24 07:41:20;;;;;;;2.40;0.90;;;;;;;28.79;32.09;100831.89;108014;1282;22159;-76
2022/07/24 07:44:33;;;;;;;8.40;7.30;;;;;;;28.80;31.77;100828.41;108195;1280;22017;-78
2022/07/24 07:47:38;;;;;;;2.60;1.10;;;;;;;28.65;31.32;100833.76;108035;1276;22793;-77
2022/07/24 07:50:22;;;;;;;2.40;1.00;;;;;;;28.51;31.94;100831.66;108324;1275;23646;-78
2022/07/24 07:53:06;;;;;;;3.30;1.30;;;;;;;28.78;31.90;100836.52;108409;1276;22035;-77
2022/07/24 07:55:57;;;;;;;3.40;0.70;;;;;;;28.86;30.38;100838.19;108394;1270;21987;-78
2022/07/24 07:58:30;;;;;;;1.90;0.80;;;;;;;28.69;30.39;100837.80;108502;1273;22021;-79
2022/07/24 08:01:26;;;;;;;1.90;1.00;;;;;;;28.69;31.00;100839.77;108483;1273;22105;-77
2022/07/24 08:04:25;;;;;;;2.70;1.40;;;;;;;28.72;30.88;100844.48;108440;1273;23107;-79
2022/07/24 08:07:27;;;;;;;3.60;0.90;;;;;;;28.64;30.58;100841.79;108573;1270;23090;-78
2022/07/24 08:10:10;;;;;;;5.10;1.20;;;;;;;28.54;31.13;100844.80;108763;1270;23053;-78
2022/07/24 08:13:04;;;;;;;2.50;0.80;;;;;;;28.27;30.39;100857.27;108679;1270;21992;-78
2022/07/24 08:15:40;;;;;;;2.20;1.00;;;;;;;27.78;31.01;100859.92;108535;1270;21989;-78
2022/07/24 08:18:33;;;;;;;3.30;1.00;;;;;;;27.65;32.50;100855.06;108857;1267;21992;-78
2022/07/24 08:21:10;;;;;;;2.00;1.30;;;;;;;27.82;32.45;100848.64;109302;1264;22037;-77
2022/07/24 08:23:54;;;;;;;2.60;0.90;;;;;;;28.01;32.39;100843.06;109239;1264;23040;-77
2022/07/24 08:26:33;;;;;;;3.40;0.80;;;;;;;28.30;32.08;100847.87;109006;1265;23068;-77
2022/07/24 08:29:11;;;;;;;3.20;1.50;;;;;;;28.45;31.24;100848.63;108916;1267;21960;-78
2022/07/24 08:31:47;;;;;;;2.90;0.90;;;;;;;28.57;31.05;100849.80;108622;1270;22015;-78
2022/07/24 08:34:39;;;;;;;3.70;0.80;;;;;;;28.82;30.96;100851.95;108687;1270;21987;-78
2022/07/24 08:38:06;;;;;;;5.60;1.00;;;;;;;29.14;29.96;100854.95;108380;1276;21988;-77
2022/07/24 08:41:01;;;;;;;2.10;0.80;;;;;;;28.97;29.07;100855.92;108281;1276;23048;-79
2022/07/24 08:43:55;;;;;;;3.10;0.80;;;;;;;28.46;29.72;100859.80;108288;1279;23716;-78
2022/07/24 08:47:21;;;;;;;3.60;1.20;;;;;;;28.36;31.17;100855.42;108322;1274;21978;-78
2022/07/24 08:50:05;;;;;;;3.10;1.00;;;;;;;28.42;30.46;100854.52;107905;1278;22185;-78
2022/07/24 08:52:46;;;;;;;4.80;1.00;;;;;;;28.02;30.03;100857.38;108309;1278;22004;-79
2022/07/24 08:55:34;;;;;;;1.80;0.90;;;;;;;27.39;30.94;100862.16;107920;1278;22020;-78
2022/07/24 08:58:18;;;;;;;3.60;0.90;;;;;;;26.92;32.55;100868.86;108107;1278;21989;-77
2022/07/24 09:01:09;;;;;;;2.10;1.00;;;;;;;27.02;34.08;100865.23;108335;1275;22006;-78
2022/07/24 09:03:54;;;;;;;2.60;0.60;;;;;;;27.35;33.15;100863.41;108244;1278;21997;-77
2022/07/24 09:06:33;;;;;;;2.40;0.80;;;;;;;27.61;32.46;100858.09;108356;1275;22131;-77
2022/07/24 09:09:11;;;;;;;1.70;0.70;;;;;;;28.02;32.19;100855.21;108441;1273;23052;-77
2022/07/24 09:11:51;;;;;;;1.90;0.80;;;;;;;28.26;30.99;100854.06;108647;1270;23195;-77
2022/07/24 09:14:35;;;;;;;3.90;0.90;;;;;;;28.10;30.30;100859.78;108830;1267;22193;-77
2022/07/24 09:17:25;;;;;;;;;;;;;;;;;;;;;
2022/07/24 09:20:01;;;;;;;2.80;0.80;;;;;;;27.85;31.28;100859.13;109513;1263;21983;-77
2022/07/24 09:22:42;;;;;;;2.70;0.90;;;;;;;27.92;31.32;100855.88;109222;1263;23616;-78
2022/07/24 09:25:27;;;;;;;1.10;0.60;;;;;;;28.20;31.41;100854.99;109200;1263;23707;-78
2022/07/24 09:28:08;;;;;;;3.30;1.00;;;;;;;28.40;30.37;100861.39;109166;1263;23075;-79
2022/07/24 09:31:02;;;;;;;3.60;1.10;;;;;;;28.04;29.75;100866.68;109224;1264;22336;-78
2022/07/24 09:33:37;;;;;;;3.00;0.80;;;;;;;27.89;31.10;100866.84;109132;1263;23589;-75
2022/07/24 09:36:18;;;;;;;2.40;0.90;;;;;;;28.10;31.13;100865.70;109192;1264;21993;-77
2022/07/24 09:38:51;;;;;;;1.40;0.80;;;;;;;28.01;30.03;100868.91;109471;1263;22055;-76
2022/07/24 09:41:25;;;;;;;2.10;1.10;;;;;;;27.72;30.29;100872.30;109253;1263;21978;-77
2022/07/24 09:44:00;;;;;;;1.60;0.60;;;;;;;27.71;30.70;100868.26;108993;1266;23472;-77
2022/07/24 09:46:31;;;;;;;1.40;1.10;;;;;;;27.92;30.99;100866.84;108974;1267;23103;-78
2022/07/24 09:49:04;;;;;;;3.70;0.80;;;;;;;28.23;30.46;100861.63;108939;1267;23696;-78
2022/07/24 09:51:40;;;;;;;2.00;0.90;;;;;;;28.17;29.17;100865.92;108887;1267;21984;-78
2022/07/24 09:54:37;;;;;;;5.50;1.20;;;;;;;27.83;29.74;100873.72;109134;1267;23814;-78
2022/07/24 09:57:28;;;;;;;2.50;0.90;;;;;;;27.40;30.44;100876.23;108815;1269;21987;-77
2022/07/24 10:00:06;;;;;;;1.90;1.00;;;;;;;27.16;32.04;100875.06;109066;1267;23690;-77
2022/07/24 10:03:24;;;;;;;2.40;0.90;;;;;;;27.39;33.21;100867.92;109004;1266;22465;-77
2022/07/24 10:06:30;;;;;;;5.30;1.30;;;;;;;27.60;32.33;100869.98;108694;1267;21977;-78
2022/07/24 10:09:07;;;;;;;5.40;1.10;;;;;;;27.66;31.79;100870.05;109118;1264;21994;-78
2022/07/24 10:12:03;;;;;;;4.60;1.10;;;;;;;27.58;31.55;100869.05;109548;1262;22835;-79
2022/07/24 10:14:36;;;;;;;2.70;1.00;;;;;;;27.36;31.16;100873.56;108876;1269;23603;-78
2022/07/24 10:17:25;;;;;;;5.60;1.10;;;;;;;27.30;32.37;100873.66;108845;1269;21991;-78
2022/07/24 10:20:02;;;;;;;1.70;0.70;;;;;;;27.49;32.57;100874.09;108920;1269;23596;-78
2022/07/24 10:23:28;;;;;;;3.40;0.90;;;;;;;27.73;32.33;100877.08;108912;1269;22027;-78
2022/07/24 10:26:45;;;;;;;3.40;1.10;;;;;;;27.94;31.70;100875.70;108530;1273;23615;-78
2022/07/24 10:30:02;;;;;;;2.30;1.00;;;;;;;27.95;30.72;100871.79;108625;1273;21998;-79
2022/07/24 10:32:57;;;;;;;7.50;1.90;;;;;;;27.58;30.69;100868.36;108678;1267;22348;-81
2022/07/24 10:35:59;;;;;;;2.20;0.80;;;;;;;27.24;31.36;100871.58;109132;1266;22000;-80
2022/07/24 10:39:19;;;;;;;1.80;0.60;;;;;;;27.28;32.62;100873.55;108767;1269;21985;-80
2022/07/24 10:42:05;;;;;;;4.20;1.00;;;;;;;27.49;32.45;100869.09;109189;1266;22428;-79
2022/07/24 10:45:02;;;;;;;3.70;0.80;;;;;;;27.52;31.56;100876.86;109149;1267;24365;-80
2022/07/24 10:47:36;;;;;;;2.30;1.00;;;;;;;27.26;31.55;100877.44;109094;1267;22071;-80
2022/07/24 10:50:26;;;;;;;;;;;;;;;;;;;;;
2022/07/24 10:53:26;;;;;;;5.10;1.10;;;;;;;27.11;32.17;100872.58;108587;1273;22050;-78
2022/07/24 10:56:30;;;;;;;2.30;1.00;;;;;;;27.00;31.81;100872.75;108429;1273;23627;-80
2022/07/24 10:59:42;;;;;;;2.40;0.70;;;;;;;26.83;31.96;100872.45;108509;1278;22073;-79
2022/07/24 11:02:32;;;;;;;2.60;1.20;;;;;;;26.75;32.16;100865.52;108126;1278;22803;-79
2022/07/24 11:05:29;;;;;;;;;;;;;;;26.62;32.20;100868.70;108200;1282;21985;-79
2022/07/24 11:08:39;;;;;;;1.90;0.90;;;;;;;26.42;32.33;100867.69;108073;1285;22007;-79
2022/07/24 11:11:24;;;;;;;3.20;0.90;;;;;;;26.34;32.63;100862.58;107413;1290;23087;-78
2022/07/24 11:14:05;;;;;;;3.90;0.80;;;;;;;26.32;32.81;100859.21;107277;1288;23087;-78
2022/07/24 11:16:40;;;;;;;1.90;1.00;;;;;;;26.30;32.86;100858.05;107405;1288;22017;-79
2022/07/24 11:19:31;;;;;;;2.00;0.90;;;;;;;26.21;32.71;100856.27;106997;1293;22012;-80
2022/07/24 11:22:11;;;;;;;2.10;0.90;;;;;;;26.09;33.49;100851.52;107102;1294;22042;-79
2022/07/24 11:25:09;;;;;;;3.50;0.80;;;;;;;26.05;33.49;100853.87;107071;1293;22009;-78
2022/07/24 11:28:13;;;;;;;4.40;1.10;;;;;;;25.94;33.54;100850.42;106518;1294;22053;-78
2022/07/24 11:30:46;;;;;;;3.70;0.80;;;;;;;25.86;33.62;100851.33;107512;1285;23751;-79
2022/07/24 11:33:21;;;;;;;;;;;;;;;25.85;33.88;100853.65;107981;1283;23893;-81
2022/07/24 11:36:12;;;;;;;1.30;0.80;;;;;;;25.74;34.25;100851.52;107950;1283;22080;-79
2022/07/24 11:38:51;;;;;;;2.90;0.90;;;;;;;25.69;33.77;100845.84;108271;1279;22016;-79
2022/07/24 11:41:21;;;;;;;2.00;0.90;;;;;;;25.68;33.97;100846.96;107986;1282;21997;-79
2022/07/24 11:43:54;;;;;;;3.60;1.10;;;;;;;25.66;34.22;100848.02;108272;1279;23720;-79
2022/07/24 11:46:37;;;;;;;3.90;0.90;;;;;;;25.68;34.24;100845.29;108288;1276;23422;-79
2022/07/24 11:49:11;;;;;;;2.30;2.00;;;;;;;25.71;34.15;100848.02;108526;1276;22026;-80
2022/07/24 11:51:56;;;;;;;3.40;1.20;;;;;;;25.68;33.82;100841.60;108595;1273;21992;-80
2022/07/24 11:54:29;;;;;;;5.80;1.10;;;;;;;25.61;33.80;100841.27;108703;1273;22222;-78
2022/07/24 11:57:19;;;;;;;2.00;0.90;;;;;;;25.59;34.00;100846.33;108340;1273;22004;-78
2022/07/24 12:00:16;;;;;;;1.60;0.80;;;;;;;25.54;33.90;100840.17;108647;1270;21986;-78
2022/07/24 12:02:48;;;;;;;4.80;2.10;;;;;;;25.50;34.08;100839.15;109037;1269;22010;-78
2022/07/24 12:05:29;;;;;;;2.80;1.40;;;;;;;25.51;34.05;100839.59;108859;1264;22100;-78
2022/07/24 12:08:01;;;;;;;3.70;1.20;;;;;;;25.49;33.98;100838.72;109136;1270;21992;-76